Ana Sayfa
METAR-TAF:

METAR-TAF

Havaalanları :

York Airport

York, Pensilvanya, Amerika Birleşik Devletleri

Enlem: 39-55-10N, Boylam: 076-52-37W, yükseklik: 146 m

Güncel hava durumu gözlemi

Rapor saat 03:53 UTC de 46 dakika önce yapıldı.
Rüzgar güneybatıdan 5 kt
Sıcaklık 10°C
Nem 82%
Basınç 1007 hPa
Görüş mesafesi: 16.1 km
900 ft yükseklikte çok bulutlu

METAR: KTHV 100353Z AUTO 22005KT 10SM OVC009 10/07 A2975 RMK AO2 SLP077 T01000072

Saat: 23:39 (04:39 UTC)


TAF: eksik

4.000'den fazla havaalanı için hava durumu gözlemleri ve tahminleri (METAR ve TAF raporları).

Kullanılabilir istasyonlar harita üzerinde sarı ve kırmızı noktalarla gösterilir.

İstasyonun adını görmek için fareyi noktanın üzerinde gezdirin.

Sonrasında hava gözlem ve tahminlerini görmek için tıklayın.

Haritayı değiştirmek için: yaklaştırmak için siyah artı işaretli yeşil düğmeye ve uzaklaştırmak için de eksi işaretli düğmeye hızla tıklayın; bitişik haritalar için yeşil okları kullanın.


METAR-TAF: